WetterOnline ( http://www.wetteronline.de )

Wetter aktuell Freudenstadt (in 700m)

Aktuelles Wetter: Freudenstadt (801m)

6-stündlich | Neueste Meldungen
Ortszeit Temperatur Wetter
So, 19.08. 20:00 22.5° C wolkig
So, 19.08. 14:00 22.7° C bewölkt
So, 19.08. 8:00 17.5° C bewölkt
So, 19.08. 2:00 15.6° C bedeckt
Sa, 18.08. 20:00 19.1° C wolkenlos
Sa, 18.08. 14:00 21.4° C bedeckt
Sa, 18.08. 8:00 14.2° C leicht bewölkt
Sa, 18.08. 2:00 15.7° C bewölkt
Ortszeit Temperatur Wetter
So, 19.08. 22:30 18.0° C wolkig
So, 19.08. 22:20 18.0° C wolkig
So, 19.08. 22:10 17.9° C leicht bewölkt
So, 19.08. 22:00 18.2° C fast wolkenlos
So, 19.08. 21:50 18.2° C fast wolkenlos
So, 19.08. 21:40 18.5° C wolkenlos
So, 19.08. 21:30 19.0° C leicht bewölkt
So, 19.08. 21:00 20.1° C wolkig
So, 19.08. 20:30 21.2° C wolkig
So, 19.08. 20:00 22.5° C wolkig
So, 19.08. 19:30 23.1° C leicht bewölkt
Ortszeit Relative Feuchte Sichtweite
So, 19.08. 20:00 52% 50 km
So, 19.08. 14:00 53% 40 km
So, 19.08. 8:00 60% 50 km
So, 19.08. 2:00 88% 24 km
Sa, 18.08. 20:00 86% 17 km
Sa, 18.08. 14:00 64% 30 km
Sa, 18.08. 8:00 94% 11 km
Sa, 18.08. 2:00 90% 22 km
Ortszeit Relative Feuchte Sichtweite
So, 19.08. 22:30 65% 65 km
So, 19.08. 22:20 65% -
So, 19.08. 22:10 66% -
So, 19.08. 22:00 66% 60 km
So, 19.08. 21:50 66% -
So, 19.08. 21:40 64% -
So, 19.08. 21:30 63% 60 km
So, 19.08. 21:00 59% 55 km
So, 19.08. 20:30 57% 60 km
So, 19.08. 20:00 52% 50 km
So, 19.08. 19:30 52% 55 km
Ortszeit Niederschlagsmenge Niederschlagsart
So, 19.08. 20:00 0.1 l/m2 in 12 Std. -
So, 19.08. 14:00 0.1 l/m2 in 6 Std. Niederschlag
So, 19.08. 8:00 0.0 l/m2 in 12 Std. -
So, 19.08. 2:00 0.0 l/m2 in 6 Std. -
Sa, 18.08. 20:00 7 l/m2 in 12 Std. Regen
Sa, 18.08. 14:00 0.0 l/m2 in 6 Std. -
Sa, 18.08. 8:00 0.1 l/m2 in 12 Std. -
Sa, 18.08. 2:00 0.1 l/m2 in 6 Std. Regen
Ortszeit Niederschlagsmenge Niederschlagsart
So, 19.08. 22:30 0.0 l/m2 in 1 Std. -
So, 19.08. 22:20 keine Meldung -
So, 19.08. 22:10 keine Meldung -
So, 19.08. 22:00 0.0 l/m2 in 1 Std. -
So, 19.08. 21:50 keine Meldung -
So, 19.08. 21:40 keine Meldung -
So, 19.08. 21:30 0.0 l/m2 in 1 Std. -
So, 19.08. 21:00 0.0 l/m2 in 1 Std. -
So, 19.08. 20:30 0.0 l/m2 in 1 Std. -
So, 19.08. 20:00 0.0 l/m2 in 1 Std. -
So, 19.08. 19:30 0.0 l/m2 in 1 Std. -
Ortszeit Stärke Spitze Richtung
km/h Bft. km/h Grad Sektor
So, 19.08. 20:00 13 3 22 290° W
So, 19.08. 14:00 7 2 14 310° NW
So, 19.08. 8:00 4 1 14 60° NO
So, 19.08. 2:00 11 2 14 300° NW
Sa, 18.08. 20:00 7 2 22 320° NW
Sa, 18.08. 14:00 4 1 18 30° NO
Sa, 18.08. 8:00 9 2 15 270° W
Sa, 18.08. 2:00 11 2 36 300° NW
Ortszeit Stärke Spitze Richtung
km/h Bft. km/h Grad Sektor
So, 19.08. 22:30 9 2 15 290° W
So, 19.08. 22:20 9 2 - 290° W
So, 19.08. 22:10 11 2 - 290° W
So, 19.08. 22:00 11 2 18 280° W
So, 19.08. 21:50 11 2 - 280° W
So, 19.08. 21:40 11 2 - 280° W
So, 19.08. 21:30 13 3 19 280° W
So, 19.08. 21:00 14 3 18 280° W
So, 19.08. 20:30 11 2 19 280° W
So, 19.08. 20:00 13 3 22 290° W
So, 19.08. 19:30 13 3 22 300° NW
Ortszeit Untergrenze Bedeckung Gattung
total tief tief mittel hoch
So, 19.08. 20:00 1500 m 8/8 2/8 - - -
So, 19.08. 14:00 1320 m 7/8 7/8 - - -
So, 19.08. 8:00 1080 m 7/8 7/8 - - -
So, 19.08. 2:00 1230 m 8/8 8/8 - - -
Sa, 18.08. 20:00 - 0/8 0/8 - - -
Sa, 18.08. 14:00 930 m 8/8 8/8 - - -
Sa, 18.08. 8:00 30 m 4/8 4/8 - - -
Sa, 18.08. 2:00 2400 m 8/8 6/8 - - -
Ortszeit Bedeckungsgrad in Achtel und Wolkenuntergrenze
So, 19.08. 22:30 7(10500m)
So, 19.08. 22:20 7(10500m)
So, 19.08. 22:10 5(10500m)
So, 19.08. 22:00 1(2400m)
So, 19.08. 21:50 1(2400m)
So, 19.08. 21:40 keine Wolken
So, 19.08. 21:30 3(9000m)
So, 19.08. 21:00 3(1500m) 7(9000m) 8(10500m)
So, 19.08. 20:30 3(1500m) 8(10500m)
So, 19.08. 20:00 2(1500m) 8(10500m)
So, 19.08. 19:30 6(10500m)
Ortszeit Stationsdruck (hPa) Tendenz (hPa in 3 Std.)
So, 19.08. 20:00 929 - 0,4
So, 19.08. 14:00 931 - 0,8
So, 19.08. 8:00 931 0,0
So, 19.08. 2:00 931 - 0,4
Sa, 18.08. 20:00 930 0,0
Sa, 18.08. 14:00 931 0,0
Sa, 18.08. 8:00 930 + 0,5
Sa, 18.08. 2:00 929 0,0
Ortszeit Stationsdruck (hPa) Tendenz (hPa in 3 Std.)
So, 19.08. 22:30 930 + 0,6
So, 19.08. 22:20 930 keine Meldung
So, 19.08. 22:10 930 keine Meldung
So, 19.08. 22:00 930 + 0,5
So, 19.08. 21:50 930 keine Meldung
So, 19.08. 21:40 930 keine Meldung
So, 19.08. 21:30 930 + 0,4
So, 19.08. 21:00 930 + 0,1
So, 19.08. 20:30 929 0,0
So, 19.08. 20:00 929 - 0,4
So, 19.08. 19:30 929 - 0,6
Ortszeit Schneehöhe (cm)
So, 19.08. 20:00 -
So, 19.08. 14:00 -
So, 19.08. 8:00 -
So, 19.08. 2:00 -
Sa, 18.08. 20:00 -
Sa, 18.08. 14:00 -
Sa, 18.08. 8:00 -
Sa, 18.08. 2:00 -
Ortszeit Schneehöhe (cm)
So, 19.08. 22:30 -
So, 19.08. 22:20 -
So, 19.08. 22:10 -
So, 19.08. 22:00 -
So, 19.08. 21:50 -
So, 19.08. 21:40 -
So, 19.08. 21:30 -
So, 19.08. 21:00 -
So, 19.08. 20:30 -
So, 19.08. 20:00 -
So, 19.08. 19:30 -
Link zu dieser Seite / Seite empfehlen

Das Wetter in ...